createdAt,value
2023-04-30T00:00:47.557Z,11.10
2023-04-30T00:03:36.475Z,10.27
2023-04-30T00:06:04.986Z,9.27
2023-04-30T00:08:33.510Z,8.67
2023-04-30T00:11:01.814Z,9.53
2023-04-30T00:13:30.445Z,8.77
2023-04-30T00:15:58.710Z,8.67
2023-04-30T00:18:27.204Z,9.27
2023-04-30T00:20:56.815Z,9.03
2023-04-30T00:23:25.389Z,9.77
2023-04-30T00:25:53.667Z,10.37
2023-04-30T00:28:22.366Z,10.20
2023-04-30T00:30:50.709Z,9.73
2023-04-30T00:33:19.290Z,9.50
2023-04-30T00:35:47.586Z,10.00
2023-04-30T00:38:17.770Z,9.27
2023-04-30T00:40:47.183Z,8.73
2023-04-30T00:43:15.808Z,9.63
2023-04-30T00:45:44.761Z,9.63
2023-04-30T00:48:13.406Z,9.87
2023-04-30T00:50:44.839Z,9.23
2023-04-30T00:53:13.797Z,9.27
2023-04-30T00:55:45.850Z,9.93
2023-04-30T00:58:14.385Z,10.33
2023-04-30T01:00:47.151Z,9.87
2023-04-30T01:03:16.284Z,9.07
2023-04-30T01:05:44.853Z,9.57
2023-04-30T01:08:13.469Z,10.10
2023-04-30T01:10:53.377Z,10.20
2023-04-30T01:13:33.070Z,9.27
2023-04-30T01:16:10.403Z,10.17
2023-04-30T01:18:44.783Z,9.90
2023-04-30T01:21:15.424Z,9.70
2023-04-30T01:24:04.517Z,10.27
2023-04-30T01:26:47.906Z,9.80
2023-04-30T01:29:21.293Z,9.90
2023-04-30T01:31:49.767Z,10.53
2023-04-30T01:34:18.570Z,9.80
2023-04-30T01:37:06.994Z,9.20
2023-04-30T01:39:49.900Z,10.47
2023-04-30T01:42:22.789Z,9.73
2023-04-30T01:45:13.839Z,9.40
2023-04-30T01:47:51.365Z,9.70
2023-04-30T01:50:29.406Z,9.30
2023-04-30T01:53:01.085Z,8.83
2023-04-30T01:55:36.809Z,9.53
2023-04-30T01:58:08.552Z,8.60
2023-04-30T02:00:38.541Z,9.53
2023-04-30T02:03:07.022Z,7.83
2023-04-30T02:05:36.164Z,8.57
2023-04-30T02:08:05.194Z,8.37
2023-04-30T02:10:35.356Z,8.73
2023-04-30T02:13:04.336Z,8.77
2023-04-30T02:15:33.075Z,8.20
2023-04-30T02:18:02.900Z,8.73
2023-04-30T02:20:31.801Z,7.80
2023-04-30T02:23:00.021Z,8.73
2023-04-30T02:25:28.562Z,8.63
2023-04-30T02:27:57.175Z,8.80
2023-04-30T02:30:25.844Z,7.27
2023-04-30T02:32:54.055Z,7.40
2023-04-30T02:35:23.962Z,7.07
2023-04-30T02:37:52.628Z,8.63
2023-04-30T02:40:21.145Z,7.10
2023-04-30T02:42:49.913Z,7.30
2023-04-30T02:45:18.502Z,6.87
2023-04-30T02:47:47.244Z,8.20
2023-04-30T02:50:15.925Z,7.37
2023-04-30T02:52:47.329Z,6.77
2023-04-30T02:55:16.723Z,7.13
2023-04-30T02:57:44.942Z,7.10
2023-04-30T03:00:14.654Z,7.90
2023-04-30T03:02:43.175Z,6.80
2023-04-30T03:05:12.529Z,7.10
2023-04-30T03:07:40.770Z,6.33
2023-04-30T03:10:11.968Z,6.83
2023-04-30T03:12:41.013Z,6.17
2023-04-30T03:15:10.691Z,7.53
2023-04-30T03:17:39.003Z,7.43
2023-04-30T03:20:08.777Z,6.93
2023-04-30T03:22:36.976Z,6.13
2023-04-30T03:25:06.897Z,7.00
2023-04-30T03:27:36.520Z,8.43
2023-04-30T03:30:06.027Z,7.97
2023-04-30T03:32:34.509Z,6.87
2023-04-30T03:35:04.204Z,6.33
2023-04-30T03:37:32.748Z,7.20
2023-04-30T03:40:01.309Z,5.93
2023-04-30T03:42:29.571Z,6.87
2023-04-30T03:44:59.492Z,6.60
2023-04-30T03:47:27.844Z,7.03
2023-04-30T03:49:56.490Z,6.27
2023-04-30T03:52:26.578Z,6.23
2023-04-30T03:54:55.685Z,6.40
2023-04-30T03:57:24.163Z,6.83
2023-04-30T03:59:53.267Z,6.00
2023-04-30T04:02:23.666Z,6.40
2023-04-30T04:04:53.605Z,7.50
2023-04-30T04:07:22.103Z,7.07
2023-04-30T04:09:50.770Z,6.90
2023-04-30T04:12:18.903Z,6.17
2023-04-30T04:14:47.763Z,7.10
2023-04-30T04:17:16.029Z,7.27
2023-04-30T04:19:47.384Z,8.37
2023-04-30T04:22:17.641Z,5.67
2023-04-30T04:24:47.917Z,6.80
2023-04-30T04:27:20.822Z,6.60
2023-04-30T04:29:49.856Z,6.40
2023-04-30T04:32:18.391Z,6.63
2023-04-30T04:34:49.407Z,6.60
2023-04-30T04:37:18.152Z,6.87
2023-04-30T04:39:46.713Z,6.37
2023-04-30T04:42:16.484Z,6.30
2023-04-30T04:44:45.657Z,6.87
2023-04-30T04:47:13.967Z,6.50
2023-04-30T04:49:42.851Z,5.63
2023-04-30T04:52:12.483Z,5.50
2023-04-30T04:54:41.064Z,6.73
2023-04-30T04:57:09.238Z,6.87
2023-04-30T04:59:38.680Z,5.77
2023-04-30T05:02:07.070Z,5.57
2023-04-30T05:04:35.975Z,5.47
2023-04-30T05:07:04.279Z,5.90
2023-04-30T05:09:34.042Z,5.13
2023-04-30T05:12:02.259Z,5.80
2023-04-30T05:14:31.081Z,5.20
2023-04-30T05:16:59.735Z,5.97
2023-04-30T05:19:28.328Z,5.10
2023-04-30T05:21:56.594Z,4.57
2023-04-30T05:24:25.403Z,6.00
2023-04-30T05:26:55.119Z,4.50
2023-04-30T05:29:24.128Z,5.13
2023-04-30T05:31:52.439Z,5.53
2023-04-30T05:34:21.265Z,4.47
2023-04-30T05:36:49.888Z,4.67
2023-04-30T05:39:18.459Z,4.60
2023-04-30T05:41:46.590Z,4.43
2023-04-30T05:44:16.629Z,3.73
2023-04-30T05:46:45.135Z,4.60
2023-04-30T05:49:13.664Z,5.67
2023-04-30T05:51:42.401Z,3.93
2023-04-30T05:54:11.254Z,4.50
2023-04-30T05:56:39.592Z,4.60
2023-04-30T05:59:08.208Z,4.40
2023-04-30T06:01:38.238Z,4.40
2023-04-30T06:04:06.767Z,4.73
2023-04-30T06:06:35.133Z,4.47
2023-04-30T06:09:03.743Z,4.07
2023-04-30T06:11:32.248Z,3.93
2023-04-30T06:14:01.220Z,4.13
2023-04-30T06:16:30.400Z,4.03
2023-04-30T06:19:01.020Z,5.40
2023-04-30T06:21:29.355Z,4.17
2023-04-30T06:23:58.029Z,3.17
2023-04-30T06:26:26.361Z,3.80
2023-04-30T06:28:54.801Z,3.87
2023-04-30T06:31:23.257Z,4.03
2023-04-30T06:33:52.543Z,4.23
2023-04-30T06:36:22.264Z,4.00
2023-04-30T06:38:51.032Z,4.30
2023-04-30T06:41:19.610Z,3.67
2023-04-30T06:43:48.175Z,3.80
2023-04-30T06:46:16.562Z,3.67
2023-04-30T06:48:45.409Z,2.93
2023-04-30T06:51:13.581Z,3.60
2023-04-30T06:53:43.511Z,4.87
2023-04-30T06:56:11.782Z,4.30
2023-04-30T06:58:40.294Z,3.50
2023-04-30T07:01:08.663Z,3.23
2023-04-30T07:03:37.440Z,3.87
2023-04-30T07:06:06.160Z,3.40
2023-04-30T07:08:34.756Z,3.13
2023-04-30T07:11:04.447Z,3.23
2023-04-30T07:13:32.952Z,3.50
2023-04-30T07:16:01.344Z,3.37
2023-04-30T07:18:30.569Z,2.60
2023-04-30T07:20:58.772Z,2.90
2023-04-30T07:23:28.498Z,3.47
2023-04-30T07:25:58.774Z,3.23
2023-04-30T07:28:29.529Z,3.47
2023-04-30T07:30:57.783Z,3.27
2023-04-30T07:33:26.283Z,2.67
2023-04-30T07:35:56.140Z,2.93
2023-04-30T07:38:24.829Z,3.23
2023-04-30T07:40:53.112Z,3.47
2023-04-30T07:43:21.658Z,3.20
2023-04-30T07:45:53.434Z,3.33
2023-04-30T07:48:22.320Z,2.83
2023-04-30T07:50:52.136Z,3.27
2023-04-30T07:53:21.488Z,2.50
2023-04-30T07:55:49.849Z,3.23
2023-04-30T07:58:18.534Z,2.70
2023-04-30T08:00:46.932Z,2.70
2023-04-30T08:03:17.030Z,3.70
2023-04-30T08:05:46.227Z,2.70
2023-04-30T08:08:14.783Z,3.47
2023-04-30T08:10:43.613Z,3.80
2023-04-30T08:13:12.111Z,3.27
2023-04-30T08:15:40.634Z,3.37
2023-04-30T08:18:10.716Z,3.30
2023-04-30T08:20:40.912Z,2.93
2023-04-30T08:23:09.694Z,3.13
2023-04-30T08:25:37.967Z,2.97
2023-04-30T08:28:07.845Z,3.03
2023-04-30T08:30:36.271Z,3.30
2023-04-30T08:33:04.879Z,3.30
2023-04-30T08:35:33.234Z,3.47
2023-04-30T08:38:03.309Z,3.30
2023-04-30T08:40:50.262Z,3.13
2023-04-30T08:43:20.188Z,3.47
2023-04-30T08:45:50.282Z,3.70
2023-04-30T08:48:22.318Z,2.90
2023-04-30T08:50:50.636Z,2.63
2023-04-30T08:53:21.726Z,2.17
2023-04-30T08:55:49.931Z,2.80
2023-04-30T08:58:18.635Z,3.20
2023-04-30T09:00:47.072Z,2.60
2023-04-30T09:03:16.110Z,3.37
2023-04-30T09:05:44.656Z,3.17
2023-04-30T09:08:20.298Z,3.00
2023-04-30T09:10:48.611Z,2.90
2023-04-30T09:13:17.304Z,2.50
2023-04-30T09:15:45.949Z,2.80
2023-04-30T09:18:17.688Z,2.73
2023-04-30T09:20:57.286Z,2.40
2023-04-30T09:23:27.198Z,2.73
2023-04-30T09:25:56.535Z,2.50
2023-04-30T09:28:27.333Z,3.33
2023-04-30T09:30:58.277Z,3.07
2023-04-30T09:33:27.355Z,2.67
2023-04-30T09:35:55.526Z,3.37
2023-04-30T09:38:30.432Z,3.03
2023-04-30T09:41:00.777Z,2.53
2023-04-30T09:43:30.789Z,2.80
2023-04-30T09:46:00.835Z,2.30
2023-04-30T09:48:29.873Z,2.43
2023-04-30T09:50:58.296Z,2.10
2023-04-30T09:53:29.227Z,2.10
2023-04-30T09:56:02.717Z,2.03
2023-04-30T09:58:33.591Z,3.20
2023-04-30T10:01:05.099Z,2.30
2023-04-30T10:03:34.235Z,2.07
2023-04-30T10:06:03.595Z,2.20
2023-04-30T10:08:40.923Z,2.53
2023-04-30T10:11:12.884Z,2.77
2023-04-30T10:13:46.599Z,2.20
2023-04-30T10:16:21.715Z,2.00
2023-04-30T10:18:53.084Z,2.07
2023-04-30T10:21:24.574Z,2.00
2023-04-30T10:23:56.067Z,2.23
2023-04-30T10:26:25.797Z,2.00
2023-04-30T10:28:55.270Z,2.40
2023-04-30T10:31:24.376Z,1.63
2023-04-30T10:34:03.496Z,2.10
2023-04-30T10:36:42.148Z,2.60
2023-04-30T10:39:13.470Z,2.30
2023-04-30T10:41:41.888Z,2.27
2023-04-30T10:44:10.886Z,1.90
2023-04-30T10:46:39.365Z,2.23
2023-04-30T10:49:08.366Z,2.13
2023-04-30T10:51:47.465Z,1.90
2023-04-30T10:54:23.625Z,1.90
2023-04-30T10:56:53.266Z,1.93
2023-04-30T10:59:21.918Z,1.90
2023-04-30T11:01:58.159Z,2.03
2023-04-30T11:04:27.232Z,1.77
2023-04-30T11:07:04.644Z,2.07
2023-04-30T11:09:40.748Z,1.90
2023-04-30T11:12:14.371Z,1.87
2023-04-30T11:14:45.317Z,2.40
2023-04-30T11:17:14.967Z,2.00
2023-04-30T11:19:50.191Z,2.60
2023-04-30T11:22:20.825Z,2.50
2023-04-30T11:24:55.486Z,2.20
2023-04-30T11:27:25.527Z,2.60
2023-04-30T11:29:55.423Z,2.90
2023-04-30T11:32:26.148Z,2.30
2023-04-30T11:34:55.515Z,2.30
2023-04-30T11:37:36.276Z,2.17
2023-04-30T11:40:08.710Z,2.03
2023-04-30T11:42:39.436Z,1.80
2023-04-30T11:45:10.485Z,2.27
2023-04-30T11:47:43.714Z,1.97
2023-04-30T11:50:14.324Z,1.77
2023-04-30T11:52:43.462Z,1.95
2023-04-30T11:55:17.598Z,1.73
2023-04-30T11:57:47.690Z,1.87
2023-04-30T12:00:17.812Z,1.80
2023-04-30T12:02:47.604Z,1.52
2023-04-30T12:05:18.055Z,1.43
2023-04-30T12:07:48.129Z,2.13
2023-04-30T12:10:20.089Z,2.47
2023-04-30T12:12:51.240Z,1.80
2023-04-30T12:15:23.283Z,1.90
2023-04-30T12:17:51.536Z,2.22
2023-04-30T12:20:21.846Z,1.95
2023-04-30T12:22:50.928Z,3.25
2023-04-30T12:25:22.431Z,2.00
2023-04-30T12:27:52.806Z,2.33
2023-04-30T12:30:22.733Z,2.13
2023-04-30T12:32:52.568Z,2.08
2023-04-30T12:35:23.785Z,2.60
2023-04-30T12:37:53.740Z,2.10
2023-04-30T12:40:28.583Z,1.90
2023-04-30T12:43:02.504Z,2.03
2023-04-30T12:45:52.308Z,1.95
2023-04-30T12:48:23.168Z,2.20
2023-04-30T12:50:56.335Z,2.30
2023-04-30T12:53:25.026Z,1.90
2023-04-30T12:56:12.095Z,2.22
2023-04-30T12:58:41.760Z,1.88
2023-04-30T13:01:12.867Z,2.53
2023-04-30T13:03:41.746Z,2.15
2023-04-30T13:06:11.010Z,2.17
2023-04-30T13:08:49.833Z,2.40
2023-04-30T13:11:28.400Z,2.22
2023-04-30T13:13:56.734Z,2.10
2023-04-30T13:16:26.106Z,2.30
2023-04-30T13:18:55.209Z,2.20
2023-04-30T13:21:24.881Z,2.10
2023-04-30T13:23:54.839Z,2.13
2023-04-30T13:26:24.550Z,2.10
2023-04-30T13:28:54.388Z,2.10
2023-04-30T13:31:23.532Z,1.60
2023-04-30T13:33:52.082Z,1.88
2023-04-30T13:36:21.024Z,2.38
2023-04-30T13:38:49.120Z,1.58
2023-04-30T13:41:17.591Z,1.85
2023-04-30T13:43:47.572Z,1.80
2023-04-30T13:46:17.717Z,1.92
2023-04-30T13:48:48.196Z,1.92
2023-04-30T13:51:16.842Z,1.83
2023-04-30T13:53:45.136Z,1.73
2023-04-30T13:56:15.337Z,1.80
2023-04-30T13:58:44.102Z,2.17
2023-04-30T14:01:13.890Z,1.95
2023-04-30T14:03:43.633Z,2.55
2023-04-30T14:06:12.541Z,2.20
2023-04-30T14:08:40.894Z,2.13
2023-04-30T14:11:09.605Z,1.98
2023-04-30T14:13:38.109Z,2.92
2023-04-30T14:16:07.206Z,1.95
2023-04-30T14:18:35.752Z,2.35
2023-04-30T14:21:05.981Z,2.17
2023-04-30T14:23:34.247Z,1.98
2023-04-30T14:26:02.904Z,1.70
2023-04-30T14:28:31.420Z,3.13
2023-04-30T14:31:00.411Z,2.40
2023-04-30T14:33:28.657Z,2.10
2023-04-30T14:35:57.615Z,1.92
2023-04-30T14:38:27.304Z,2.20
2023-04-30T14:40:55.871Z,1.60
2023-04-30T14:43:24.510Z,2.38
2023-04-30T14:45:53.392Z,2.30
2023-04-30T14:48:21.664Z,1.80
2023-04-30T14:50:51.642Z,1.83
2023-04-30T14:53:19.921Z,2.03
2023-04-30T14:55:49.978Z,2.40
2023-04-30T14:58:19.606Z,2.50
2023-04-30T15:00:48.294Z,1.92
2023-04-30T15:03:16.794Z,2.30
2023-04-30T15:05:45.580Z,2.58
2023-04-30T15:08:13.895Z,2.38
2023-04-30T15:10:42.479Z,2.33
2023-04-30T15:13:13.593Z,2.83
2023-04-30T15:15:43.108Z,1.70
2023-04-30T15:18:11.520Z,2.00
2023-04-30T15:20:39.972Z,2.05
2023-04-30T15:23:08.377Z,2.10
2023-04-30T15:25:36.856Z,1.90
2023-04-30T15:28:05.220Z,2.00
2023-04-30T15:30:35.033Z,2.00
2023-04-30T15:33:03.654Z,2.13
2023-04-30T15:35:32.710Z,2.28
2023-04-30T15:38:00.897Z,2.20
2023-04-30T15:40:29.637Z,1.92
2023-04-30T15:42:57.992Z,2.30
2023-04-30T15:45:27.529Z,1.90
2023-04-30T15:47:57.300Z,2.05
2023-04-30T15:50:26.110Z,3.03
2023-04-30T15:52:54.422Z,2.10
2023-04-30T15:55:23.680Z,2.10
2023-04-30T15:57:52.173Z,2.33
2023-04-30T16:00:23.377Z,2.30
2023-04-30T16:02:51.602Z,2.20
2023-04-30T16:05:21.556Z,2.03
2023-04-30T16:07:49.920Z,1.67
2023-04-30T16:10:19.985Z,2.13
2023-04-30T16:12:48.635Z,2.05
2023-04-30T16:15:17.576Z,2.17
2023-04-30T16:17:45.908Z,2.05
2023-04-30T16:20:15.168Z,2.03
2023-04-30T16:22:44.976Z,1.70
2023-04-30T16:25:13.622Z,2.13
2023-04-30T16:27:43.234Z,2.17
2023-04-30T16:30:12.366Z,1.98
2023-04-30T16:32:40.749Z,2.13
2023-04-30T16:35:10.097Z,1.85
2023-04-30T16:37:38.318Z,1.75
2023-04-30T16:40:09.514Z,1.90
2023-04-30T16:42:37.759Z,2.28
2023-04-30T16:45:07.154Z,2.28
2023-04-30T16:47:35.303Z,2.30
2023-04-30T16:50:04.285Z,2.28
2023-04-30T16:52:33.568Z,1.83
2023-04-30T16:55:02.308Z,2.10
2023-04-30T16:57:31.952Z,2.53
2023-04-30T17:00:00.534Z,1.90
2023-04-30T17:02:29.036Z,2.30
2023-04-30T17:04:58.935Z,2.30
2023-04-30T17:07:27.139Z,2.08
2023-04-30T17:09:56.294Z,2.97
2023-04-30T17:12:24.931Z,2.30
2023-04-30T17:14:54.766Z,2.42
2023-04-30T17:17:23.420Z,2.08
2023-04-30T17:19:51.956Z,2.15
2023-04-30T17:22:20.415Z,1.75
2023-04-30T17:24:49.051Z,2.28
2023-04-30T17:27:19.020Z,2.45
2023-04-30T17:29:47.518Z,2.30
2023-04-30T17:32:17.846Z,1.83
2023-04-30T17:34:47.382Z,2.42
2023-04-30T17:37:15.949Z,4.32
2023-04-30T17:39:44.564Z,3.08
2023-04-30T17:42:13.164Z,2.05
2023-04-30T17:44:42.170Z,2.25
2023-04-30T17:47:10.412Z,2.50
2023-04-30T17:49:40.504Z,2.30
2023-04-30T17:52:08.841Z,2.30
2023-04-30T17:54:37.649Z,2.30
2023-04-30T17:57:06.549Z,2.72
2023-04-30T17:59:35.123Z,2.38
2023-04-30T18:02:05.518Z,2.90
2023-04-30T18:04:34.650Z,3.13
2023-04-30T18:07:04.260Z,2.90
2023-04-30T18:09:32.880Z,3.00
2023-04-30T18:12:01.244Z,3.63
2023-04-30T18:14:29.865Z,3.38
2023-04-30T18:16:58.315Z,4.32
2023-04-30T18:19:26.779Z,3.42
2023-04-30T18:21:56.695Z,3.38
2023-04-30T18:24:28.370Z,4.60
2023-04-30T18:26:56.753Z,6.10
2023-04-30T18:29:25.397Z,4.40
2023-04-30T18:31:53.591Z,5.25
2023-04-30T18:34:22.444Z,5.45
2023-04-30T18:36:50.790Z,4.53
2023-04-30T18:39:20.066Z,4.22
2023-04-30T18:41:49.817Z,4.22
2023-04-30T18:44:18.322Z,3.70
2023-04-30T18:46:46.679Z,4.05
2023-04-30T18:49:15.771Z,3.83
2023-04-30T18:51:44.193Z,3.17
2023-04-30T18:54:14.025Z,3.78
2023-04-30T18:56:42.244Z,3.95
2023-04-30T18:59:12.443Z,3.75
2023-04-30T19:01:40.820Z,4.03
2023-04-30T19:04:13.642Z,4.30
2023-04-30T19:06:42.024Z,4.63
2023-04-30T19:09:10.656Z,7.47
2023-04-30T19:11:39.029Z,5.50
2023-04-30T19:14:07.698Z,3.67
2023-04-30T19:16:37.229Z,3.40
2023-04-30T19:19:05.840Z,3.97
2023-04-30T19:21:36.185Z,3.75
2023-04-30T19:24:05.480Z,3.60
2023-04-30T19:26:34.235Z,3.17
2023-04-30T19:29:04.011Z,3.00
2023-04-30T19:31:33.391Z,3.80
2023-04-30T19:34:03.772Z,3.40
2023-04-30T19:36:32.124Z,3.95
2023-04-30T19:39:00.733Z,3.13
2023-04-30T19:41:29.005Z,4.07
2023-04-30T19:43:57.630Z,4.70
2023-04-30T19:46:26.891Z,3.83
2023-04-30T19:48:55.681Z,4.37
2023-04-30T19:51:25.159Z,4.27
2023-04-30T19:53:54.921Z,3.83
2023-04-30T19:56:23.384Z,4.30
2023-04-30T19:58:51.907Z,4.10
2023-04-30T20:01:20.337Z,3.60
2023-04-30T20:03:48.899Z,4.13
2023-04-30T20:06:17.224Z,3.77
2023-04-30T20:08:47.198Z,4.00
2023-04-30T20:11:15.528Z,3.80
2023-04-30T20:13:44.074Z,3.80
2023-04-30T20:16:12.738Z,4.47
2023-04-30T20:18:42.047Z,3.90
2023-04-30T20:21:10.496Z,5.43
2023-04-30T20:23:40.731Z,3.90
2023-04-30T20:26:10.666Z,3.73
2023-04-30T20:28:39.661Z,3.97
2023-04-30T20:31:09.708Z,5.27
2023-04-30T20:33:39.264Z,4.53
2023-04-30T20:36:07.478Z,4.13
2023-04-30T20:38:36.159Z,4.60
2023-04-30T20:41:04.472Z,5.30
2023-04-30T20:43:34.501Z,4.63
2023-04-30T20:46:03.033Z,5.00
2023-04-30T20:48:31.582Z,5.33
2023-04-30T20:50:59.949Z,5.90
2023-04-30T20:53:28.519Z,6.67
2023-04-30T20:56:00.305Z,5.90
2023-04-30T20:58:29.682Z,5.90
2023-04-30T21:00:59.492Z,5.67
2023-04-30T21:03:28.232Z,5.87
2023-04-30T21:05:56.489Z,6.10
2023-04-30T21:08:25.404Z,5.43
2023-04-30T21:10:53.587Z,5.37
2023-04-30T21:13:22.146Z,5.97
2023-04-30T21:15:53.538Z,5.00
2023-04-30T21:18:26.504Z,5.10
2023-04-30T21:20:56.412Z,5.00
2023-04-30T21:23:24.942Z,4.93
2023-04-30T21:25:55.565Z,4.93
2023-04-30T21:28:24.092Z,5.00
2023-04-30T21:30:52.324Z,4.83
2023-04-30T21:33:22.773Z,4.50
2023-04-30T21:35:51.049Z,4.67
2023-04-30T21:38:19.522Z,4.90
2023-04-30T21:40:47.906Z,4.83
2023-04-30T21:43:17.813Z,4.53
2023-04-30T21:45:46.086Z,4.93
2023-04-30T21:48:14.625Z,4.77
2023-04-30T21:50:44.402Z,4.53
2023-04-30T21:53:13.220Z,4.97
2023-04-30T21:55:41.717Z,4.63
2023-04-30T21:58:10.119Z,4.60
2023-04-30T22:00:39.157Z,5.23
2023-04-30T22:03:09.989Z,4.73
2023-04-30T22:05:39.818Z,5.67
2023-04-30T22:08:09.757Z,4.97
2023-04-30T22:10:38.147Z,5.83
2023-04-30T22:13:07.048Z,5.53
2023-04-30T22:15:47.137Z,5.40
2023-04-30T22:18:17.174Z,5.60
2023-04-30T22:20:45.686Z,5.43
2023-04-30T22:23:15.724Z,6.00
2023-04-30T22:25:44.193Z,5.93
2023-04-30T22:28:12.744Z,5.23
2023-04-30T22:30:41.260Z,5.10
2023-04-30T22:33:09.830Z,5.50
2023-04-30T22:35:39.146Z,5.93
2023-04-30T22:38:07.970Z,5.80
2023-04-30T22:40:40.159Z,5.07
2023-04-30T22:43:10.019Z,5.33
2023-04-30T22:45:40.447Z,5.60
2023-04-30T22:48:10.611Z,5.70
2023-04-30T22:50:39.376Z,5.90
2023-04-30T22:53:08.034Z,6.07
2023-04-30T22:55:37.712Z,6.27
2023-04-30T22:58:06.534Z,5.27
2023-04-30T23:00:34.901Z,6.23
2023-04-30T23:03:03.460Z,6.93
2023-04-30T23:05:31.800Z,6.13
2023-04-30T23:08:01.156Z,6.73
2023-04-30T23:10:29.860Z,6.70
2023-04-30T23:12:59.673Z,7.23
2023-04-30T23:15:28.136Z,6.90
2023-04-30T23:17:58.211Z,5.67
2023-04-30T23:20:26.639Z,6.47
2023-04-30T23:22:56.163Z,6.40
2023-04-30T23:25:24.485Z,5.30
2023-04-30T23:27:53.876Z,5.13
2023-04-30T23:30:23.476Z,4.90
2023-04-30T23:32:52.231Z,4.77
2023-04-30T23:35:21.064Z,4.67
2023-04-30T23:37:50.178Z,4.77
2023-04-30T23:40:19.726Z,5.23
2023-04-30T23:42:48.181Z,4.83
2023-04-30T23:45:16.607Z,5.13
2023-04-30T23:47:46.724Z,4.37
2023-04-30T23:50:14.957Z,4.90
2023-04-30T23:52:44.116Z,5.40
2023-04-30T23:55:12.695Z,4.10
2023-04-30T23:57:42.255Z,4.87
